Time;durP1;ratioP1;P1;durP2;ratioP2;P2;SDS_P1;SDS_P2;PMS_P1;PMS_P2;Temp;Humidity;BMP_temperature;BMP_pressure;BME280_temperature;BME280_humidity;BME280_pressure;Samples;Min_cycle;Max_cycle;Signal;HPM_P1;HPM_P2
2023/09/29 00:00:47;;;;;;;0.00;0.00;;;;;;;;;;5016557;28;20026;-84
2023/09/29 00:03:15;;;;;;;0.00;0.00;;;;;;;;;;4982087;28;20068;-83
2023/09/29 00:05:43;;;;;;;0.00;0.00;;;;;;;;;;4999690;28;20052;-85
2023/09/29 00:08:22;;;;;;;0.00;0.00;;;;;;;;;;4982710;28;20111;-83
2023/09/29 00:10:49;;;;;;;0.00;0.00;;;;;;;;;;5000950;28;20061;-84
2023/09/29 00:13:15;;;;;;;0.00;0.00;;;;;;;;;;4999284;28;20026;-84
2023/09/29 00:15:40;;;;;;;0.00;0.00;;;;;;;;;;4977989;28;20492;-83
2023/09/29 00:18:09;;;;;;;0.10;0.00;;;;;;;;;;4983050;28;20031;-84
2023/09/29 00:20:35;;;;;;;0.00;0.00;;;;;;;;;;4975858;28;20082;-84
2023/09/29 00:23:02;;;;;;;0.00;0.00;;;;;;;;;;4976132;28;20058;-84
2023/09/29 00:25:28;;;;;;;0.00;0.00;;;;;;;;;;4976533;28;20508;-84
2023/09/29 00:27:55;;;;;;;0.00;0.00;;;;;;;;;;4959641;28;20142;-83
2023/09/29 00:30:21;;;;;;;0.00;0.00;;;;;;;;;;4992225;28;20389;-84
2023/09/29 00:32:50;;;;;;;0.00;0.00;;;;;;;;;;4992015;28;20041;-83
2023/09/29 00:35:29;;;;;;;0.00;0.00;;;;;;;;;;4992239;28;20035;-83
2023/09/29 00:37:55;;;;;;;0.00;0.00;;;;;;;;;;4979943;28;20453;-83
2023/09/29 00:40:21;;;;;;;0.00;0.00;;;;;;;;;;4976837;28;20113;-85
2023/09/29 00:42:46;;;;;;;0.00;0.00;;;;;;;;;;5008169;28;20118;-83
2023/09/29 00:45:12;;;;;;;0.00;0.00;;;;;;;;;;4976981;28;20117;-84
2023/09/29 00:47:39;;;;;;;0.00;0.00;;;;;;;;;;4975509;28;20054;-84
2023/09/29 00:50:09;;;;;;;0.00;0.00;;;;;;;;;;4959569;28;20452;-85
2023/09/29 00:52:38;;;;;;;0.32;0.00;;;;;;;;;;4975747;28;20039;-83
2023/09/29 00:55:16;;;;;;;0.00;0.00;;;;;;;;;;4975650;28;20043;-83
2023/09/29 01:02:57;;;;;;;0.00;0.00;;;;;;;;;;4976802;28;20464;-84
2023/09/29 01:05:23;;;;;;;0.00;0.00;;;;;;;;;;4976763;28;20035;-84
2023/09/29 01:07:48;;;;;;;0.00;0.00;;;;;;;;;;4976288;28;20039;-84
2023/09/29 01:10:14;;;;;;;0.00;0.00;;;;;;;;;;4975362;28;20037;-83
2023/09/29 01:12:40;;;;;;;0.00;0.00;;;;;;;;;;4976165;28;20033;-84
2023/09/29 01:15:06;;;;;;;0.00;0.00;;;;;;;;;;4994834;28;20061;-85
2023/09/29 01:17:32;;;;;;;0.00;0.00;;;;;;;;;;4977983;28;20034;-84
2023/09/29 01:19:57;;;;;;;0.00;0.00;;;;;;;;;;4959065;28;20137;-84
2023/09/29 01:22:22;;;;;;;0.00;0.00;;;;;;;;;;4958693;28;20130;-84
2023/09/29 01:24:48;;;;;;;0.00;0.00;;;;;;;;;;4976362;28;20035;-84
2023/09/29 01:27:13;;;;;;;0.00;0.00;;;;;;;;;;4974501;28;20034;-84
2023/09/29 01:29:42;;;;;;;0.00;0.00;;;;;;;;;;4991299;28;20460;-84
2023/09/29 01:32:14;;;;;;;0.00;0.00;;;;;;;;;;4975634;28;20034;-84
2023/09/29 01:34:40;;;;;;;0.00;0.00;;;;;;;;;;4962590;28;20174;-84
2023/09/29 01:37:06;;;;;;;0.00;0.00;;;;;;;;;;4974865;28;20121;-83
2023/09/29 01:39:32;;;;;;;0.00;0.00;;;;;;;;;;4991035;28;20522;-84
2023/09/29 01:41:58;;;;;;;0.00;0.00;;;;;;;;;;4975774;28;20039;-84
2023/09/29 01:44:23;;;;;;;0.00;0.00;;;;;;;;;;4974842;28;20334;-84
2023/09/29 01:46:49;;;;;;;0.13;0.00;;;;;;;;;;4974690;28;20027;-83
2023/09/29 01:49:15;;;;;;;0.00;0.00;;;;;;;;;;4990554;28;20448;-84
2023/09/29 01:51:44;;;;;;;0.00;0.00;;;;;;;;;;4974413;28;20457;-84
2023/09/29 01:54:10;;;;;;;0.00;0.00;;;;;;;;;;4994869;28;20043;-84
2023/09/29 01:56:36;;;;;;;0.00;0.00;;;;;;;;;;4975553;28;20110;-83
2023/09/29 01:59:02;;;;;;;0.00;0.00;;;;;;;;;;4974424;28;20035;-84
2023/09/29 02:01:28;;;;;;;0.00;0.00;;;;;;;;;;4974712;28;20042;-84
2023/09/29 02:03:53;;;;;;;0.00;0.00;;;;;;;;;;4990715;28;20031;-85
2023/09/29 02:06:21;;;;;;;0.00;0.00;;;;;;;;;;4990803;28;20062;-84
2023/09/29 02:08:47;;;;;;;0.00;0.00;;;;;;;;;;4974474;28;20039;-84
2023/09/29 02:11:12;;;;;;;0.00;0.00;;;;;;;;;;4974468;28;20034;-84
2023/09/29 02:13:38;;;;;;;0.00;0.00;;;;;;;;;;4980662;28;20050;-85
2023/09/29 02:16:10;;;;;;;0.00;0.00;;;;;;;;;;4998457;28;20045;-84
2023/09/29 02:18:36;;;;;;;0.00;0.00;;;;;;;;;;5014615;28;20124;-84
2023/09/29 02:21:06;;;;;;;0.00;0.00;;;;;;;;;;4997122;28;20061;-85
2023/09/29 02:23:33;;;;;;;0.00;0.00;;;;;;;;;;5014346;28;20367;-85
2023/09/29 02:26:00;;;;;;;0.00;0.00;;;;;;;;;;5013515;28;20042;-84
2023/09/29 02:28:30;;;;;;;0.00;0.00;;;;;;;;;;5013981;28;20030;-84
2023/09/29 02:30:56;;;;;;;0.00;0.00;;;;;;;;;;4997596;28;20034;-84
2023/09/29 02:33:24;;;;;;;0.00;0.00;;;;;;;;;;5005930;28;20084;-85
2023/09/29 02:35:50;;;;;;;0.00;0.00;;;;;;;;;;4997069;28;20030;-85
2023/09/29 02:38:16;;;;;;;0.00;0.00;;;;;;;;;;4997156;28;20136;-85
2023/09/29 02:40:42;;;;;;;0.00;0.00;;;;;;;;;;5017625;28;20084;-85
2023/09/29 02:43:07;;;;;;;0.00;0.00;;;;;;;;;;5000631;28;20046;-84
2023/09/29 02:45:33;;;;;;;0.00;0.00;;;;;;;;;;5018158;28;20041;-85
2023/09/29 02:47:58;;;;;;;0.00;0.00;;;;;;;;;;5019251;28;20080;-84
2023/09/29 02:50:24;;;;;;;0.00;0.00;;;;;;;;;;5020303;28;20080;-85
2023/09/29 02:52:51;;;;;;;0.00;0.00;;;;;;;;;;5029694;28;20075;-84
2023/09/29 02:55:17;;;;;;;0.00;0.00;;;;;;;;;;5003173;28;20034;-84
2023/09/29 02:57:42;;;;;;;0.00;0.00;;;;;;;;;;5003256;28;20042;-84
2023/09/29 03:00:26;;;;;;;0.00;0.00;;;;;;;;;;5018090;28;20042;-84
2023/09/29 03:02:52;;;;;;;0.00;0.00;;;;;;;;;;4988288;28;20828;-85
2023/09/29 03:05:21;;;;;;;0.00;0.00;;;;;;;;;;5017661;28;20100;-84
2023/09/29 03:07:46;;;;;;;0.00;0.00;;;;;;;;;;5000402;28;20172;-84
2023/09/29 03:10:12;;;;;;;0.00;0.00;;;;;;;;;;5000840;28;20112;-85
2023/09/29 03:12:38;;;;;;;0.00;0.00;;;;;;;;;;5026871;28;20042;-85
2023/09/29 03:15:07;;;;;;;0.00;0.00;;;;;;;;;;5017534;28;20038;-84
2023/09/29 03:17:33;;;;;;;0.00;0.00;;;;;;;;;;5000270;28;20421;-84
2023/09/29 03:19:58;;;;;;;0.00;0.00;;;;;;;;;;5017702;28;20064;-85
2023/09/29 03:22:24;;;;;;;0.00;0.00;;;;;;;;;;5017505;28;20096;-85
2023/09/29 03:24:49;;;;;;;0.00;0.00;;;;;;;;;;4999878;28;20052;-84
2023/09/29 03:27:17;;;;;;;0.00;0.00;;;;;;;;;;5017123;28;20060;-85
2023/09/29 03:29:43;;;;;;;0.00;0.00;;;;;;;;;;5017252;28;20084;-85
2023/09/29 03:32:09;;;;;;;0.10;0.00;;;;;;;;;;5008807;28;20034;-85
2023/09/29 03:34:34;;;;;;;0.00;0.00;;;;;;;;;;4983909;28;20030;-84
2023/09/29 03:37:00;;;;;;;0.00;0.00;;;;;;;;;;4983200;28;20088;-85
2023/09/29 03:39:25;;;;;;;0.00;0.00;;;;;;;;;;5015903;28;20034;-84
2023/09/29 03:41:51;;;;;;;0.00;0.00;;;;;;;;;;5016929;28;20041;-84
2023/09/29 03:44:16;;;;;;;0.00;0.00;;;;;;;;;;4999599;28;20493;-83
2023/09/29 03:46:42;;;;;;;0.00;0.00;;;;;;;;;;4999711;28;20044;-84
2023/09/29 03:49:11;;;;;;;0.00;0.00;;;;;;;;;;5000069;28;20030;-82
2023/09/29 03:51:38;;;;;;;0.00;0.00;;;;;;;;;;4991343;28;20025;-84
2023/09/29 03:54:04;;;;;;;0.00;0.00;;;;;;;;;;4999337;28;20444;-83
2023/09/29 03:56:29;;;;;;;0.00;0.00;;;;;;;;;;5016829;28;20030;-84
2023/09/29 03:58:55;;;;;;;0.00;0.00;;;;;;;;;;5016947;28;20049;-85
2023/09/29 04:01:21;;;;;;;0.00;0.00;;;;;;;;;;5016735;28;20044;-85
2023/09/29 04:03:46;;;;;;;0.00;0.00;;;;;;;;;;5015337;28;20040;-85
2023/09/29 04:06:13;;;;;;;0.00;0.00;;;;;;;;;;5016391;28;20037;-84
2023/09/29 04:08:39;;;;;;;0.00;0.00;;;;;;;;;;5017395;28;20432;-84
2023/09/29 04:11:04;;;;;;;0.00;0.00;;;;;;;;;;5009643;28;20028;-85
2023/09/29 04:13:30;;;;;;;0.00;0.00;;;;;;;;;;4982836;28;20026;-84
2023/09/29 04:15:55;;;;;;;0.00;0.00;;;;;;;;;;4982463;28;20440;-84
2023/09/29 04:18:22;;;;;;;0.00;0.00;;;;;;;;;;4998776;28;20120;-85
2023/09/29 04:20:47;;;;;;;0.00;0.00;;;;;;;;;;5015223;28;20064;-85
2023/09/29 04:23:13;;;;;;;0.00;0.00;;;;;;;;;;4998931;28;20053;-84
2023/09/29 04:25:38;;;;;;;0.00;0.00;;;;;;;;;;4998630;28;20475;-84
2023/09/29 04:28:04;;;;;;;0.00;0.00;;;;;;;;;;5017397;28;20034;-84
2023/09/29 04:30:32;;;;;;;0.00;0.00;;;;;;;;;;5023395;28;20379;-85
2023/09/29 04:32:57;;;;;;;0.00;0.00;;;;;;;;;;5018100;28;20659;-85
2023/09/29 04:35:22;;;;;;;0.00;0.00;;;;;;;;;;5017123;28;20030;-85
2023/09/29 04:37:51;;;;;;;0.00;0.00;;;;;;;;;;5000003;28;20029;-83
2023/09/29 04:40:16;;;;;;;0.00;0.00;;;;;;;;;;5017010;28;20049;-91
2023/09/29 04:42:41;;;;;;;0.00;0.00;;;;;;;;;;5026267;28;20101;-92
2023/09/29 04:45:08;;;;;;;0.00;0.00;;;;;;;;;;5003057;28;20057;-90
2023/09/29 04:48:09;;;;;;;0.00;0.00;;;;;;;;;;5028995;28;20420;-91
2023/09/29 04:50:34;;;;;;;0.00;0.00;;;;;;;;;;4970352;28;20038;-90
2023/09/29 04:53:02;;;;;;;0.00;0.00;;;;;;;;;;4950453;29;20601;-89
2023/09/29 04:55:59;;;;;;;0.00;0.00;;;;;;;;;;4945962;28;20544;-88
2023/09/29 04:59:14;;;;;;;0.00;0.00;;;;;;;;;;4915617;29;20043;-92
2023/09/29 05:05:04;;;;;;;0.00;0.00;;;;;;;;;;4987273;23;20064;-91
2023/09/29 05:08:02;;;;;;;0.00;0.00;;;;;;;;;;4991340;28;20033;-91
2023/09/29 05:10:28;;;;;;;0.00;0.00;;;;;;;;;;4972715;28;20027;-90
2023/09/29 05:12:54;;;;;;;0.00;0.00;;;;;;;;;;4977520;28;20026;-90
2023/09/29 05:15:22;;;;;;;0.00;0.00;;;;;;;;;;5020045;28;20026;-92
2023/09/29 05:17:47;;;;;;;0.00;0.00;;;;;;;;;;4992749;28;20080;-92
2023/09/29 05:20:14;;;;;;;0.00;0.00;;;;;;;;;;4992629;28;20030;-92
2023/09/29 05:22:39;;;;;;;0.00;0.00;;;;;;;;;;4995140;28;20027;-91
2023/09/29 05:25:05;;;;;;;0.00;0.00;;;;;;;;;;5012511;28;20031;-90
2023/09/29 05:27:32;;;;;;;0.00;0.00;;;;;;;;;;5013572;28;20077;-92
2023/09/29 05:30:16;;;;;;;0.00;0.00;;;;;;;;;;5000032;28;20049;-91
2023/09/29 05:32:42;;;;;;;0.00;0.00;;;;;;;;;;5000775;28;20034;-93
2023/09/29 05:35:08;;;;;;;0.00;0.00;;;;;;;;;;4964218;28;20454;-93
2023/09/29 05:37:33;;;;;;;0.08;0.00;;;;;;;;;;4982262;28;20022;-90
2023/09/29 05:40:04;;;;;;;0.00;0.00;;;;;;;;;;5013810;28;20052;-94
2023/09/29 05:42:30;;;;;;;0.00;0.00;;;;;;;;;;5008706;28;20038;-92
2023/09/29 05:45:34;;;;;;;0.00;0.00;;;;;;;;;;5010409;28;20029;-90
2023/09/29 06:05:16;;;;;;;0.00;0.00;;;;;;;;;;5030839;28;20033;-87
2023/09/29 06:08:07;;;;;;;0.00;0.00;;;;;;;;;;4986598;28;20468;-91
2023/09/29 06:10:32;;;;;;;0.00;0.00;;;;;;;;;;4986661;28;20095;-81
2023/09/29 06:13:13;;;;;;;0.00;0.00;;;;;;;;;;4980207;28;20054;-89
2023/09/29 06:16:08;;;;;;;0.00;0.00;;;;;;;;;;4943882;28;20035;-87
2023/09/29 06:18:34;;;;;;;0.00;0.00;;;;;;;;;;4951111;28;20039;-85
2023/09/29 06:28:24;;;;;;;0.00;0.00;;;;;;;;;;4941288;29;20062;-85
2023/09/29 06:33:28;;;;;;;0.00;0.00;;;;;;;;;;5945057;23;20020;-84
2023/09/29 06:45:07;;;;;;;0.00;0.00;;;;;;;;;;5017765;23;20149;-82
2023/09/29 06:47:34;;;;;;;0.10;0.00;;;;;;;;;;4997866;28;20041;-82
2023/09/29 06:50:00;;;;;;;0.00;0.00;;;;;;;;;;5013107;28;20132;-85
2023/09/29 06:52:25;;;;;;;0.00;0.00;;;;;;;;;;4985496;28;20040;-82
2023/09/29 06:57:48;;;;;;;0.00;0.00;;;;;;;;;;5262968;23;20461;-82
2023/09/29 07:00:34;;;;;;;0.00;0.00;;;;;;;;;;4971816;28;20038;-89
2023/09/29 07:06:06;;;;;;;0.00;0.00;;;;;;;;;;4958156;29;20066;-83
2023/09/29 07:08:47;;;;;;;0.00;0.00;;;;;;;;;;4981073;23;20113;-83
2023/09/29 07:14:59;;;;;;;0.00;0.00;;;;;;;;;;4921392;28;20034;-92
2023/09/29 07:18:16;;;;;;;0.00;0.00;;;;;;;;;;4979439;28;20031;-95
2023/09/29 07:20:45;;;;;;;0.00;0.00;;;;;;;;;;5075667;23;20029;-86
2023/09/29 07:26:13;;;;;;;0.00;0.00;;;;;;;;;;5139075;23;20108;-91
2023/09/29 07:28:39;;;;;;;0.00;0.00;;;;;;;;;;4961091;28;20017;-89
2023/09/29 07:33:45;;;;;;;0.08;0.08;;;;;;;;;;5019228;23;20110;-95
2023/09/29 07:36:23;;;;;;;0.00;0.00;;;;;;;;;;5139095;23;20123;-96
2023/09/29 07:38:49;;;;;;;0.00;0.00;;;;;;;;;;4952546;29;20027;-95
2023/09/29 07:41:15;;;;;;;0.00;0.00;;;;;;;;;;4951707;28;20036;-94
2023/09/29 07:44:06;;;;;;;0.00;0.00;;;;;;;;;;4958562;28;20023;-92
2023/09/29 07:46:36;;;;;;;0.00;0.00;;;;;;;;;;4969611;28;20079;-92
2023/09/29 07:49:03;;;;;;;0.00;0.00;;;;;;;;;;4968128;28;20042;-88
2023/09/29 07:51:38;;;;;;;0.00;0.00;;;;;;;;;;4965724;29;20376;-90
2023/09/29 07:54:04;;;;;;;0.00;0.00;;;;;;;;;;4935695;29;20632;-95
2023/09/29 07:56:30;;;;;;;0.00;0.00;;;;;;;;;;4978659;28;20035;-95
2023/09/29 08:07:39;;;;;;;0.00;0.00;;;;;;;;;;5147536;23;20080;-88
2023/09/29 08:13:26;;;;;;;0.00;0.00;;;;;;;;;;5044359;23;20072;-89
2023/09/29 08:16:25;;;;;;;0.00;0.00;;;;;;;;;;4979577;23;20594;-87
2023/09/29 08:19:17;;;;;;;0.00;0.00;;;;;;;;;;4984964;28;20038;-88
2023/09/29 08:21:42;;;;;;;0.00;0.00;;;;;;;;;;4969886;28;20049;-86
2023/09/29 08:24:52;;;;;;;0.00;0.00;;;;;;;;;;4958619;28;20141;-86
2023/09/29 08:27:18;;;;;;;0.00;0.00;;;;;;;;;;4940945;28;20044;-82
2023/09/29 08:29:43;;;;;;;0.00;0.00;;;;;;;;;;4977915;28;20291;-92
2023/09/29 08:36:34;;;;;;;0.00;0.00;;;;;;;;;;4931214;23;20132;-87
2023/09/29 08:39:02;;;;;;;0.00;0.00;;;;;;;;;;4933498;23;20050;-84
2023/09/29 08:41:37;;;;;;;0.00;0.00;;;;;;;;;;4998679;28;20057;-85
2023/09/29 08:44:08;;;;;;;0.00;0.00;;;;;;;;;;5006003;23;20112;-90
2023/09/29 08:47:01;;;;;;;0.00;0.00;;;;;;;;;;4971329;28;20038;-87
2023/09/29 08:49:26;;;;;;;0.00;0.00;;;;;;;;;;5477746;23;20025;-87
2023/09/29 08:52:21;;;;;;;0.00;0.00;;;;;;;;;;5154256;23;20486;-85
2023/09/29 08:54:46;;;;;;;0.00;0.00;;;;;;;;;;4963490;28;20050;-84
2023/09/29 08:57:12;;;;;;;0.00;0.00;;;;;;;;;;4954051;28;20034;-86
2023/09/29 08:59:54;;;;;;;0.00;0.00;;;;;;;;;;5050736;23;20157;-85
2023/09/29 09:02:30;;;;;;;0.00;0.00;;;;;;;;;;4974223;28;20041;-87
2023/09/29 09:04:57;;;;;;;0.00;0.00;;;;;;;;;;4974327;23;20058;-87
2023/09/29 09:07:25;;;;;;;0.00;0.00;;;;;;;;;;4979992;28;20030;-84
2023/09/29 09:09:55;;;;;;;0.00;0.00;;;;;;;;;;4966031;23;20070;-86
2023/09/29 09:12:33;;;;;;;;;;;;;;;;;;4936435;29;20023;-89
2023/09/29 09:15:02;;;;;;;0.00;0.00;;;;;;;;;;4958464;28;20249;-91
2023/09/29 09:17:28;;;;;;;0.00;0.00;;;;;;;;;;5040057;23;20070;-87
2023/09/29 09:19:54;;;;;;;0.00;0.00;;;;;;;;;;4980029;28;20085;-84
2023/09/29 09:29:38;;;;;;;0.00;0.00;;;;;;;;;;4963952;23;20117;-83
2023/09/29 09:32:14;;;;;;;0.00;0.00;;;;;;;;;;4943841;28;20043;-86
2023/09/29 09:34:43;;;;;;;0.00;0.00;;;;;;;;;;4924494;29;20117;-84
2023/09/29 09:37:11;;;;;;;0.00;0.00;;;;;;;;;;4949431;29;20087;-83
2023/09/29 09:54:08;;;;;;;0.00;0.00;;;;;;;;;;3317492;26;20233;-78
2023/09/29 09:57:08;;;;;;;0.00;0.00;;;;;;;;;;4957122;28;20440;-76
2023/09/29 10:02:57;;;;;;;0.00;0.00;;;;;;;;;;4967166;23;20073;-77
2023/09/29 10:05:30;;;;;;;0.00;0.00;;;;;;;;;;4956082;28;20034;-76
2023/09/29 10:14:55;;;;;;;0.00;0.00;;;;;;;;;;4947989;28;20050;-76
2023/09/29 10:17:21;;;;;;;0.00;0.00;;;;;;;;;;4953641;28;20039;-75
2023/09/29 10:19:51;;;;;;;0.00;0.00;;;;;;;;;;4955059;28;20045;-75
2023/09/29 10:22:23;;;;;;;;;;;;;;;;;;4974801;28;20347;-78
2023/09/29 10:24:49;;;;;;;0.00;0.00;;;;;;;;;;4973655;28;19914;-76
2023/09/29 10:27:27;;;;;;;0.00;0.00;;;;;;;;;;4977201;28;20041;-77
2023/09/29 10:30:06;;;;;;;0.00;0.00;;;;;;;;;;4993680;28;20042;-74
2023/09/29 10:32:31;;;;;;;0.00;0.00;;;;;;;;;;4967705;28;21401;-75
2023/09/29 10:35:01;;;;;;;0.00;0.00;;;;;;;;;;4964009;28;20057;-76
2023/09/29 10:37:44;;;;;;;0.00;0.00;;;;;;;;;;4980557;28;20038;-75
2023/09/29 10:40:20;;;;;;;0.00;0.00;;;;;;;;;;4978562;28;20035;-75
2023/09/29 10:42:46;;;;;;;0.00;0.00;;;;;;;;;;4970307;28;20460;-76
2023/09/29 10:45:13;;;;;;;0.00;0.00;;;;;;;;;;4957679;28;20038;-76
2023/09/29 10:47:39;;;;;;;0.00;0.00;;;;;;;;;;4985121;28;20066;-77
2023/09/29 10:50:11;;;;;;;0.00;0.00;;;;;;;;;;4991585;28;20058;-77
2023/09/29 10:52:37;;;;;;;0.00;0.00;;;;;;;;;;4975501;28;20065;-76
2023/09/29 10:55:04;;;;;;;0.00;0.00;;;;;;;;;;4971785;28;20062;-75
2023/09/29 10:57:30;;;;;;;0.00;0.00;;;;;;;;;;4978143;28;20058;-74
2023/09/29 11:02:32;;;;;;;0.00;0.00;;;;;;;;;;5051902;23;20058;-90
2023/09/29 11:05:10;;;;;;;0.00;0.00;;;;;;;;;;4999033;28;20042;-88
2023/09/29 11:07:58;;;;;;;0.00;0.00;;;;;;;;;;4998471;28;20360;-86
2023/09/29 11:10:25;;;;;;;0.00;0.00;;;;;;;;;;4983551;28;20514;-89
2023/09/29 11:12:50;;;;;;;0.00;0.00;;;;;;;;;;5001890;28;20030;-86
2023/09/29 11:15:50;;;;;;;0.00;0.00;;;;;;;;;;4995962;28;20037;-89
2023/09/29 11:18:27;;;;;;;0.00;0.00;;;;;;;;;;4986871;28;20417;-85
2023/09/29 11:20:53;;;;;;;0.00;0.00;;;;;;;;;;5015069;28;20142;-86
2023/09/29 11:23:18;;;;;;;0.00;0.00;;;;;;;;;;5004264;28;20046;-86
2023/09/29 11:25:45;;;;;;;0.00;0.00;;;;;;;;;;5032315;28;20037;-88
2023/09/29 11:28:12;;;;;;;0.00;0.00;;;;;;;;;;5015899;28;20096;-88
2023/09/29 11:30:39;;;;;;;0.00;0.00;;;;;;;;;;4995427;28;20099;-89
2023/09/29 11:33:09;;;;;;;0.00;0.00;;;;;;;;;;5009563;28;20015;-87
2023/09/29 11:35:36;;;;;;;0.00;0.00;;;;;;;;;;5008340;28;20022;-88
2023/09/29 11:38:02;;;;;;;0.00;0.00;;;;;;;;;;5008350;28;20029;-88
2023/09/29 11:40:28;;;;;;;0.00;0.00;;;;;;;;;;5000975;28;20026;-89
2023/09/29 11:42:54;;;;;;;0.00;0.00;;;;;;;;;;4979977;28;20479;-93
2023/09/29 11:45:19;;;;;;;0.00;0.00;;;;;;;;;;4995692;28;20125;-86
2023/09/29 11:47:45;;;;;;;0.00;0.00;;;;;;;;;;4998216;28;20368;-87
2023/09/29 11:50:11;;;;;;;0.00;0.00;;;;;;;;;;4964171;28;20053;-86
2023/09/29 11:53:00;;;;;;;0.00;0.00;;;;;;;;;;5003519;28;20119;-90
2023/09/29 11:56:04;;;;;;;0.00;0.00;;;;;;;;;;5005715;28;20133;-87
2023/09/29 12:01:14;;;;;;;0.00;0.00;;;;;;;;;;4997001;28;20399;-90
2023/09/29 12:03:47;;;;;;;0.00;0.00;;;;;;;;;;4981612;28;20113;-91
2023/09/29 12:06:13;;;;;;;0.00;0.00;;;;;;;;;;4982063;28;20030;-88
2023/09/29 12:08:38;;;;;;;0.00;0.00;;;;;;;;;;5003474;28;20022;-89
2023/09/29 12:11:07;;;;;;;0.00;0.00;;;;;;;;;;5001539;28;20026;-88
2023/09/29 12:13:35;;;;;;;0.00;0.00;;;;;;;;;;5018155;28;20081;-86
2023/09/29 12:16:03;;;;;;;0.00;0.00;;;;;;;;;;5017005;28;20025;-88
2023/09/29 12:18:29;;;;;;;0.00;0.00;;;;;;;;;;5019659;28;20022;-86
2023/09/29 12:20:55;;;;;;;0.00;0.00;;;;;;;;;;5019243;28;20085;-88
2023/09/29 12:23:20;;;;;;;0.00;0.00;;;;;;;;;;5018190;28;20039;-88
2023/09/29 12:25:47;;;;;;;0.00;0.00;;;;;;;;;;5003337;28;20396;-90
2023/09/29 12:28:15;;;;;;;0.00;0.00;;;;;;;;;;4997810;28;20486;-89
2023/09/29 12:30:43;;;;;;;0.00;0.00;;;;;;;;;;4998931;28;20027;-87
2023/09/29 12:33:09;;;;;;;0.00;0.00;;;;;;;;;;4991203;28;20036;-86
2023/09/29 12:35:35;;;;;;;0.00;0.00;;;;;;;;;;4995020;28;20056;-84
2023/09/29 12:38:01;;;;;;;0.00;0.00;;;;;;;;;;5016424;28;20041;-88
2023/09/29 12:40:27;;;;;;;0.00;0.00;;;;;;;;;;4997658;28;20185;-87
2023/09/29 12:42:52;;;;;;;0.00;0.00;;;;;;;;;;4996019;28;20030;-90
2023/09/29 12:45:21;;;;;;;0.00;0.00;;;;;;;;;;4997060;28;20087;-90
2023/09/29 12:47:50;;;;;;;0.00;0.00;;;;;;;;;;4997543;28;20030;-87
2023/09/29 12:50:16;;;;;;;0.00;0.00;;;;;;;;;;5001318;28;20042;-85
2023/09/29 12:52:44;;;;;;;0.00;0.00;;;;;;;;;;5023100;28;20053;-83
2023/09/29 12:55:19;;;;;;;0.00;0.00;;;;;;;;;;5015415;28;20425;-90
2023/09/29 12:57:45;;;;;;;0.00;0.00;;;;;;;;;;5030069;28;20056;-86
2023/09/29 13:00:19;;;;;;;0.00;0.00;;;;;;;;;;5030605;28;20041;-82
2023/09/29 13:02:46;;;;;;;0.00;0.00;;;;;;;;;;4999775;28;20100;-92
2023/09/29 13:05:11;;;;;;;0.00;0.00;;;;;;;;;;4998602;28;20030;-89
2023/09/29 13:07:36;;;;;;;0.00;0.00;;;;;;;;;;4987337;28;20056;-90
2023/09/29 13:10:02;;;;;;;0.00;0.00;;;;;;;;;;5021974;28;20038;-88
2023/09/29 13:12:27;;;;;;;0.00;0.00;;;;;;;;;;5016299;28;20038;-87
2023/09/29 13:14:53;;;;;;;0.00;0.00;;;;;;;;;;5021830;23;20254;-83
2023/09/29 13:17:18;;;;;;;0.00;0.00;;;;;;;;;;4942779;28;20030;-78
2023/09/29 13:19:44;;;;;;;0.00;0.00;;;;;;;;;;4958628;28;20038;-80
2023/09/29 13:22:09;;;;;;;0.00;0.00;;;;;;;;;;4974468;28;20121;-82
2023/09/29 13:24:35;;;;;;;0.00;0.00;;;;;;;;;;4966145;28;20034;-89
2023/09/29 13:27:00;;;;;;;0.00;0.00;;;;;;;;;;4968807;28;20417;-91
2023/09/29 13:29:27;;;;;;;0.00;0.00;;;;;;;;;;4964109;28;20129;-89
2023/09/29 13:32:01;;;;;;;0.00;0.00;;;;;;;;;;4963586;28;20049;-91
2023/09/29 13:34:30;;;;;;;0.00;0.00;;;;;;;;;;4983643;28;20378;-89
2023/09/29 13:36:55;;;;;;;0.00;0.00;;;;;;;;;;4951643;28;20035;-87
2023/09/29 13:39:21;;;;;;;0.00;0.00;;;;;;;;;;4950383;28;20037;-93
2023/09/29 13:41:47;;;;;;;0.00;0.00;;;;;;;;;;4949990;28;20037;-88
2023/09/29 13:44:14;;;;;;;0.00;0.00;;;;;;;;;;4994412;28;20763;-90
2023/09/29 13:46:42;;;;;;;0.00;0.00;;;;;;;;;;4984395;28;20022;-89
2023/09/29 13:49:07;;;;;;;0.00;0.00;;;;;;;;;;4965505;28;20038;-89
2023/09/29 13:51:33;;;;;;;0.00;0.00;;;;;;;;;;4952821;28;20503;-91
2023/09/29 13:53:58;;;;;;;0.00;0.00;;;;;;;;;;4953979;28;20023;-90
2023/09/29 13:56:26;;;;;;;0.00;0.00;;;;;;;;;;4965887;28;20038;-91
2023/09/29 13:58:51;;;;;;;0.00;0.00;;;;;;;;;;4962873;28;20026;-89
2023/09/29 14:01:21;;;;;;;0.00;0.00;;;;;;;;;;4946579;28;20038;-88
2023/09/29 14:03:55;;;;;;;;;;;;;;;;;;4947796;28;20468;-88
2023/09/29 14:06:21;;;;;;;0.00;0.00;;;;;;;;;;4978549;28;19914;-90
2023/09/29 14:08:47;;;;;;;0.00;0.00;;;;;;;;;;4963982;28;20033;-89
2023/09/29 14:11:12;;;;;;;0.00;0.00;;;;;;;;;;4947415;28;20033;-89
2023/09/29 14:13:40;;;;;;;0.00;0.00;;;;;;;;;;4964440;28;20076;-89
2023/09/29 14:16:09;;;;;;;0.00;0.00;;;;;;;;;;4953278;28;20073;-92
2023/09/29 14:18:36;;;;;;;0.00;0.00;;;;;;;;;;4971127;28;20071;-91
2023/09/29 14:21:01;;;;;;;0.00;0.00;;;;;;;;;;4968786;28;20062;-90
2023/09/29 14:23:38;;;;;;;0.00;0.00;;;;;;;;;;4946925;28;20023;-90
2023/09/29 14:26:12;;;;;;;0.00;0.00;;;;;;;;;;4968030;28;20049;-91
2023/09/29 14:28:40;;;;;;;0.00;0.00;;;;;;;;;;4970230;28;20097;-90
2023/09/29 14:31:07;;;;;;;0.00;0.00;;;;;;;;;;4962980;28;20154;-92
2023/09/29 14:36:18;;;;;;;0.00;0.00;;;;;;;;;;4984498;28;20061;-90
2023/09/29 14:38:46;;;;;;;0.00;0.00;;;;;;;;;;4966953;29;20035;-91
2023/09/29 14:41:11;;;;;;;0.00;0.00;;;;;;;;;;4944562;29;20031;-90
2023/09/29 14:43:39;;;;;;;0.00;0.00;;;;;;;;;;4972717;28;20035;-90
2023/09/29 14:46:13;;;;;;;0.00;0.00;;;;;;;;;;4990759;28;20041;-90
2023/09/29 14:48:44;;;;;;;0.00;0.00;;;;;;;;;;4963147;28;20111;-91
2023/09/29 14:51:11;;;;;;;0.00;0.00;;;;;;;;;;4966006;28;20050;-90
2023/09/29 14:53:38;;;;;;;0.00;0.00;;;;;;;;;;4965698;28;20115;-90
2023/09/29 14:56:12;;;;;;;0.00;0.00;;;;;;;;;;4965259;28;20046;-92
2023/09/29 14:58:38;;;;;;;0.00;0.00;;;;;;;;;;4968447;28;20054;-90
2023/09/29 15:01:03;;;;;;;0.00;0.00;;;;;;;;;;4947522;28;20041;-90
2023/09/29 15:03:32;;;;;;;0.00;0.00;;;;;;;;;;4946381;28;20031;-92
2023/09/29 15:06:04;;;;;;;0.00;0.00;;;;;;;;;;4947512;28;20034;-90
2023/09/29 15:08:30;;;;;;;0.00;0.00;;;;;;;;;;4967092;28;20023;-90
2023/09/29 15:10:56;;;;;;;0.00;0.00;;;;;;;;;;4964971;28;20078;-90
2023/09/29 15:13:21;;;;;;;0.00;0.00;;;;;;;;;;4983378;28;20365;-91
2023/09/29 15:15:48;;;;;;;0.00;0.00;;;;;;;;;;4987945;28;20066;-90
2023/09/29 15:18:14;;;;;;;0.00;0.00;;;;;;;;;;4973107;28;20034;-91
2023/09/29 15:20:40;;;;;;;0.00;0.00;;;;;;;;;;4970212;28;20039;-91
2023/09/29 15:23:06;;;;;;;0.10;0.00;;;;;;;;;;4970869;28;20027;-90
2023/09/29 15:25:34;;;;;;;0.00;0.00;;;;;;;;;;4983345;28;20037;-91
2023/09/29 15:28:00;;;;;;;0.00;0.00;;;;;;;;;;4958654;28;20051;-91
2023/09/29 15:30:27;;;;;;;0.00;0.00;;;;;;;;;;4979112;28;20054;-92
2023/09/29 15:32:52;;;;;;;0.00;0.00;;;;;;;;;;4981728;28;20051;-91
2023/09/29 15:35:19;;;;;;;0.00;0.00;;;;;;;;;;4965192;28;20038;-91
2023/09/29 15:37:44;;;;;;;0.00;0.00;;;;;;;;;;4981375;28;20057;-91
2023/09/29 15:40:13;;;;;;;0.00;0.00;;;;;;;;;;4963212;28;20042;-91
2023/09/29 15:42:40;;;;;;;0.00;0.00;;;;;;;;;;4971905;28;20033;-90
2023/09/29 15:45:06;;;;;;;0.00;0.00;;;;;;;;;;4980813;28;20047;-91
2023/09/29 15:47:32;;;;;;;0.00;0.00;;;;;;;;;;4973078;28;20345;-90
2023/09/29 15:49:59;;;;;;;0.00;0.00;;;;;;;;;;4947102;29;20035;-91
2023/09/29 15:52:24;;;;;;;0.00;0.00;;;;;;;;;;4948145;29;20359;-91
2023/09/29 15:54:50;;;;;;;0.00;0.00;;;;;;;;;;4947378;29;20402;-90
2023/09/29 15:57:15;;;;;;;0.00;0.00;;;;;;;;;;4944612;29;20035;-90
2023/09/29 15:59:41;;;;;;;0.00;0.00;;;;;;;;;;4960314;29;20031;-89
2023/09/29 16:02:06;;;;;;;0.00;0.00;;;;;;;;;;4961192;29;20031;-89
2023/09/29 16:04:32;;;;;;;0.00;0.00;;;;;;;;;;4960730;29;20062;-90
2023/09/29 16:06:57;;;;;;;0.00;0.00;;;;;;;;;;4946981;29;20039;-89
2023/09/29 16:09:25;;;;;;;0.00;0.00;;;;;;;;;;4960695;29;20129;-89
2023/09/29 16:11:56;;;;;;;0.00;0.00;;;;;;;;;;4960714;28;20039;-89
2023/09/29 16:14:22;;;;;;;0.00;0.00;;;;;;;;;;4944085;29;20038;-88
2023/09/29 16:16:47;;;;;;;0.00;0.00;;;;;;;;;;4943171;29;20051;-90
2023/09/29 16:19:13;;;;;;;0.00;0.00;;;;;;;;;;4945121;29;20106;-89
2023/09/29 16:21:38;;;;;;;0.00;0.00;;;;;;;;;;4927366;29;20358;-89
2023/09/29 16:24:04;;;;;;;0.00;0.00;;;;;;;;;;4960174;29;20038;-89
2023/09/29 16:26:29;;;;;;;0.00;0.00;;;;;;;;;;4944751;29;20039;-89
2023/09/29 16:28:55;;;;;;;0.00;0.00;;;;;;;;;;4943236;29;20039;-89
2023/09/29 16:31:33;;;;;;;0.00;0.00;;;;;;;;;;4944262;29;20031;-89
2023/09/29 16:33:59;;;;;;;0.00;0.00;;;;;;;;;;4959922;29;20027;-88
2023/09/29 16:36:24;;;;;;;0.00;0.00;;;;;;;;;;4944172;29;20027;-89
2023/09/29 16:38:51;;;;;;;0.00;0.00;;;;;;;;;;4945440;29;20104;-89
2023/09/29 16:41:26;;;;;;;0.00;0.00;;;;;;;;;;4928040;28;20093;-90
2023/09/29 16:43:52;;;;;;;0.00;0.00;;;;;;;;;;4929651;28;20131;-89
2023/09/29 16:46:19;;;;;;;0.00;0.00;;;;;;;;;;4930384;28;20027;-89
2023/09/29 16:49:06;;;;;;;0.00;0.00;;;;;;;;;;4921226;29;20378;-91
2023/09/29 16:51:32;;;;;;;0.00;0.00;;;;;;;;;;4963205;29;20114;-90